Main page
METAR-TAF:

METAR-TAF

Airports :

London City Airport

London, England

latitude: 51-30N, longitude: 000-03E, elevation: 5 m

Current weather observation

The report was made 31 minutes ago, at 20:50 UTC
Wind 10 kt from the East
Temperature 12°C
Humidity 88%
Pressure 1021 hPa
Visibility: 5000 m
haze

METAR: EGLC 202050Z AUTO 09010KT 5000 HZ NCD 12/10 Q1021

Time: 22:21 (21:21 UTC)

Forecast

The report was made 1 hour and 23 minutes ago, at 19:58 UTC
Forecast valid from 20 at 19 UTC to 20 at 21 UTC
Wind 7 kt from the East
Visibility: 9000 m
Few clouds at a height of 3000 ft

TAF: EGLC 201958Z 2019/2021 09007KT 9000 FEW030

Weather observations and forecasts of more than 4000 airports (METAR and TAF reports).

The available stations are represented by yellow and red dots on the map.

Hover mouse over dot to see the name of the station.

Then click to see weather observations and forecasts.

To change the map : click on the green buttons with a black cross to zoom in, on the green button with a dash to zoom out, or on the green arrows for adjacent maps.


METAR-TAF: